sensor_id;sensor_type;location;lat;lon;timestamp;P1;durP1;ratioP1;P2;durP2;ratioP2
65073;SDS011;52218;51.224;-2.328;2022-09-09T00:01:08;3.58;;;1.10;;
65073;SDS011;52218;51.224;-2.328;2022-09-09T00:04:58;3.58;;;0.88;;
65073;SDS011;52218;51.224;-2.328;2022-09-09T00:09:04;1.55;;;0.90;;
65073;SDS011;52218;51.224;-2.328;2022-09-09T00:16:38;6.75;;;1.67;;
65073;SDS011;52218;51.224;-2.328;2022-09-09T00:25:23;4.15;;;1.48;;
65073;SDS011;52218;51.224;-2.328;2022-09-09T00:28:37;3.53;;;1.63;;
65073;SDS011;52218;51.224;-2.328;2022-09-09T00:32:40;2.78;;;1.60;;
65073;SDS011;52218;51.224;-2.328;2022-09-09T00:36:23;2.90;;;1.73;;
65073;SDS011;52218;51.224;-2.328;2022-09-09T00:40:21;3.67;;;2.10;;
65073;SDS011;52218;51.224;-2.328;2022-09-09T00:48:10;3.55;;;1.70;;
65073;SDS011;52218;51.224;-2.328;2022-09-09T00:51:59;2.38;;;1.60;;
65073;SDS011;52218;51.224;-2.328;2022-09-09T01:07:19;2.65;;;1.58;;
65073;SDS011;52218;51.224;-2.328;2022-09-09T01:11:01;4.22;;;1.65;;
65073;SDS011;52218;51.224;-2.328;2022-09-09T01:14:50;3.15;;;1.75;;
65073;SDS011;52218;51.224;-2.328;2022-09-09T01:18:39;5.30;;;1.70;;
65073;SDS011;52218;51.224;-2.328;2022-09-09T01:30:14;3.33;;;1.67;;
65073;SDS011;52218;51.224;-2.328;2022-09-09T01:33:58;3.25;;;1.70;;
65073;SDS011;52218;51.224;-2.328;2022-09-09T01:37:40;3.15;;;1.33;;
65073;SDS011;52218;51.224;-2.328;2022-09-09T01:41:23;2.22;;;1.33;;
65073;SDS011;52218;51.224;-2.328;2022-09-09T01:45:05;4.55;;;1.30;;
65073;SDS011;52218;51.224;-2.328;2022-09-09T01:48:48;4.97;;;1.38;;
65073;SDS011;52218;51.224;-2.328;2022-09-09T01:52:31;2.10;;;1.20;;
65073;SDS011;52218;51.224;-2.328;2022-09-09T01:56:22;3.07;;;1.20;;
65073;SDS011;52218;51.224;-2.328;2022-09-09T02:00:08;1.88;;;1.10;;
65073;SDS011;52218;51.224;-2.328;2022-09-09T02:03:53;2.45;;;0.95;;
65073;SDS011;52218;51.224;-2.328;2022-09-09T02:07:39;4.32;;;1.00;;
65073;SDS011;52218;51.224;-2.328;2022-09-09T02:11:28;3.25;;;0.98;;
65073;SDS011;52218;51.224;-2.328;2022-09-09T02:15:20;2.63;;;1.20;;
65073;SDS011;52218;51.224;-2.328;2022-09-09T02:23:07;3.15;;;0.80;;
65073;SDS011;52218;51.224;-2.328;2022-09-09T02:26:51;2.72;;;0.98;;
65073;SDS011;52218;51.224;-2.328;2022-09-09T02:30:36;4.55;;;1.17;;
65073;SDS011;52218;51.224;-2.328;2022-09-09T02:34:20;2.75;;;1.20;;
65073;SDS011;52218;51.224;-2.328;2022-09-09T02:38:06;2.97;;;1.42;;
65073;SDS011;52218;51.224;-2.328;2022-09-09T02:41:51;3.10;;;1.00;;
65073;SDS011;52218;51.224;-2.328;2022-09-09T02:45:51;2.70;;;1.20;;
65073;SDS011;52218;51.224;-2.328;2022-09-09T02:54:10;4.78;;;1.30;;
65073;SDS011;52218;51.224;-2.328;2022-09-09T02:58:03;3.70;;;1.20;;
65073;SDS011;52218;51.224;-2.328;2022-09-09T03:01:48;2.28;;;0.90;;
65073;SDS011;52218;51.224;-2.328;2022-09-09T03:05:31;2.13;;;0.88;;
65073;SDS011;52218;51.224;-2.328;2022-09-09T03:09:13;3.45;;;1.20;;
65073;SDS011;52218;51.224;-2.328;2022-09-09T03:12:55;2.63;;;1.10;;
65073;SDS011;52218;51.224;-2.328;2022-09-09T03:16:37;2.65;;;1.00;;
65073;SDS011;52218;51.224;-2.328;2022-09-09T03:20:19;2.45;;;1.15;;
65073;SDS011;52218;51.224;-2.328;2022-09-09T03:24:01;4.63;;;1.30;;
65073;SDS011;52218;51.224;-2.328;2022-09-09T03:27:44;2.25;;;1.40;;
65073;SDS011;52218;51.224;-2.328;2022-09-09T03:31:26;3.53;;;1.30;;
65073;SDS011;52218;51.224;-2.328;2022-09-09T03:35:11;3.38;;;1.48;;
65073;SDS011;52218;51.224;-2.328;2022-09-09T03:38:53;1.90;;;1.20;;
65073;SDS011;52218;51.224;-2.328;2022-09-09T03:42:36;3.40;;;1.30;;
65073;SDS011;52218;51.224;-2.328;2022-09-09T03:46:22;2.28;;;1.20;;
65073;SDS011;52218;51.224;-2.328;2022-09-09T03:50:06;3.10;;;1.02;;
65073;SDS011;52218;51.224;-2.328;2022-09-09T03:53:51;2.10;;;0.98;;
65073;SDS011;52218;51.224;-2.328;2022-09-09T03:57:37;3.47;;;1.10;;
65073;SDS011;52218;51.224;-2.328;2022-09-09T04:01:19;2.28;;;0.90;;
65073;SDS011;52218;51.224;-2.328;2022-09-09T04:05:01;2.03;;;0.80;;
65073;SDS011;52218;51.224;-2.328;2022-09-09T04:08:43;3.35;;;0.80;;
65073;SDS011;52218;51.224;-2.328;2022-09-09T04:12:26;4.50;;;1.00;;
65073;SDS011;52218;51.224;-2.328;2022-09-09T04:16:09;3.35;;;1.00;;
65073;SDS011;52218;51.224;-2.328;2022-09-09T04:19:52;1.70;;;0.80;;
65073;SDS011;52218;51.224;-2.328;2022-09-09T04:23:34;2.05;;;0.82;;
65073;SDS011;52218;51.224;-2.328;2022-09-09T04:27:17;4.63;;;1.00;;
65073;SDS011;52218;51.224;-2.328;2022-09-09T04:31:05;3.25;;;0.90;;
65073;SDS011;52218;51.224;-2.328;2022-09-09T04:34:50;1.48;;;0.88;;
65073;SDS011;52218;51.224;-2.328;2022-09-09T04:38:32;2.25;;;0.88;;
65073;SDS011;52218;51.224;-2.328;2022-09-09T04:42:14;2.30;;;1.00;;
65073;SDS011;52218;51.224;-2.328;2022-09-09T04:45:57;3.25;;;0.82;;
65073;SDS011;52218;51.224;-2.328;2022-09-09T04:49:40;3.22;;;0.90;;
65073;SDS011;52218;51.224;-2.328;2022-09-09T04:53:22;2.88;;;0.80;;
65073;SDS011;52218;51.224;-2.328;2022-09-09T04:57:04;3.35;;;0.95;;
65073;SDS011;52218;51.224;-2.328;2022-09-09T05:00:47;2.85;;;0.70;;
65073;SDS011;52218;51.224;-2.328;2022-09-09T05:04:29;2.13;;;0.65;;
65073;SDS011;52218;51.224;-2.328;2022-09-09T05:08:11;2.47;;;0.70;;
65073;SDS011;52218;51.224;-2.328;2022-09-09T05:11:53;2.67;;;0.70;;
65073;SDS011;52218;51.224;-2.328;2022-09-09T05:15:35;2.70;;;0.63;;
65073;SDS011;52218;51.224;-2.328;2022-09-09T05:19:17;1.90;;;0.40;;
65073;SDS011;52218;51.224;-2.328;2022-09-09T05:23:00;1.85;;;0.60;;
65073;SDS011;52218;51.224;-2.328;2022-09-09T05:26:42;2.38;;;0.50;;
65073;SDS011;52218;51.224;-2.328;2022-09-09T05:30:25;2.88;;;0.60;;
65073;SDS011;52218;51.224;-2.328;2022-09-09T05:34:07;1.15;;;0.30;;
65073;SDS011;52218;51.224;-2.328;2022-09-09T05:37:49;1.50;;;0.50;;
65073;SDS011;52218;51.224;-2.328;2022-09-09T05:41:31;1.48;;;0.43;;
65073;SDS011;52218;51.224;-2.328;2022-09-09T05:45:14;2.50;;;0.43;;
65073;SDS011;52218;51.224;-2.328;2022-09-09T05:48:55;1.70;;;0.40;;
65073;SDS011;52218;51.224;-2.328;2022-09-09T05:52:37;2.70;;;0.50;;
65073;SDS011;52218;51.224;-2.328;2022-09-09T05:56:20;3.65;;;0.50;;
65073;SDS011;52218;51.224;-2.328;2022-09-09T06:00:05;2.42;;;0.60;;
65073;SDS011;52218;51.224;-2.328;2022-09-09T06:03:47;2.35;;;0.47;;
65073;SDS011;52218;51.224;-2.328;2022-09-09T06:07:30;3.55;;;0.73;;
65073;SDS011;52218;51.224;-2.328;2022-09-09T06:11:14;4.07;;;0.80;;
65073;SDS011;52218;51.224;-2.328;2022-09-09T06:14:57;3.08;;;0.70;;
65073;SDS011;52218;51.224;-2.328;2022-09-09T06:18:40;3.83;;;0.70;;
65073;SDS011;52218;51.224;-2.328;2022-09-09T06:22:22;3.22;;;0.70;;
65073;SDS011;52218;51.224;-2.328;2022-09-09T06:29:53;2.58;;;0.60;;
65073;SDS011;52218;51.224;-2.328;2022-09-09T06:33:36;2.35;;;0.60;;
65073;SDS011;52218;51.224;-2.328;2022-09-09T06:37:22;2.25;;;0.70;;
65073;SDS011;52218;51.224;-2.328;2022-09-09T06:41:05;2.22;;;0.60;;
65073;SDS011;52218;51.224;-2.328;2022-09-09T06:44:47;2.95;;;0.70;;
65073;SDS011;52218;51.224;-2.328;2022-09-09T06:48:29;2.83;;;0.50;;
65073;SDS011;52218;51.224;-2.328;2022-09-09T06:52:11;4.38;;;0.90;;
65073;SDS011;52218;51.224;-2.328;2022-09-09T06:55:53;3.03;;;0.70;;
65073;SDS011;52218;51.224;-2.328;2022-09-09T06:59:35;2.95;;;0.50;;
65073;SDS011;52218;51.224;-2.328;2022-09-09T07:03:17;1.25;;;0.50;;
65073;SDS011;52218;51.224;-2.328;2022-09-09T07:06:59;2.50;;;0.60;;
65073;SDS011;52218;51.224;-2.328;2022-09-09T07:10:42;1.45;;;0.50;;
65073;SDS011;52218;51.224;-2.328;2022-09-09T07:14:25;3.53;;;0.70;;
65073;SDS011;52218;51.224;-2.328;2022-09-09T07:18:08;1.67;;;0.60;;
65073;SDS011;52218;51.224;-2.328;2022-09-09T07:21:51;2.83;;;0.70;;
65073;SDS011;52218;51.224;-2.328;2022-09-09T07:25:33;3.90;;;0.90;;
65073;SDS011;52218;51.224;-2.328;2022-09-09T07:29:15;2.85;;;0.60;;
65073;SDS011;52218;51.224;-2.328;2022-09-09T07:33:01;3.35;;;0.57;;
65073;SDS011;52218;51.224;-2.328;2022-09-09T07:36:44;4.28;;;0.50;;
65073;SDS011;52218;51.224;-2.328;2022-09-09T07:40:27;2.60;;;0.80;;
65073;SDS011;52218;51.224;-2.328;2022-09-09T07:44:14;1.88;;;0.40;;
65073;SDS011;52218;51.224;-2.328;2022-09-09T07:47:58;3.08;;;0.43;;
65073;SDS011;52218;51.224;-2.328;2022-09-09T07:51:41;1.92;;;0.40;;
65073;SDS011;52218;51.224;-2.328;2022-09-09T07:55:24;2.72;;;0.60;;
65073;SDS011;52218;51.224;-2.328;2022-09-09T07:59:08;1.63;;;0.50;;
65073;SDS011;52218;51.224;-2.328;2022-09-09T08:02:51;1.60;;;0.40;;
65073;SDS011;52218;51.224;-2.328;2022-09-09T08:06:39;3.00;;;0.50;;
65073;SDS011;52218;51.224;-2.328;2022-09-09T08:10:21;1.98;;;0.40;;
65073;SDS011;52218;51.224;-2.328;2022-09-09T08:14:04;1.55;;;0.40;;
65073;SDS011;52218;51.224;-2.328;2022-09-09T08:17:47;1.35;;;0.30;;
65073;SDS011;52218;51.224;-2.328;2022-09-09T08:21:30;1.10;;;0.38;;
65073;SDS011;52218;51.224;-2.328;2022-09-09T08:25:14;2.10;;;0.50;;
65073;SDS011;52218;51.224;-2.328;2022-09-09T08:28:56;1.23;;;0.30;;
65073;SDS011;52218;51.224;-2.328;2022-09-09T08:32:40;1.00;;;0.30;;
65073;SDS011;52218;51.224;-2.328;2022-09-09T08:36:27;0.73;;;0.20;;
65073;SDS011;52218;51.224;-2.328;2022-09-09T08:40:13;0.88;;;0.30;;
65073;SDS011;52218;51.224;-2.328;2022-09-09T08:48:36;0.32;;;0.10;;
65073;SDS011;52218;51.224;-2.328;2022-09-09T08:52:39;0.35;;;0.10;;
65073;SDS011;52218;51.224;-2.328;2022-09-09T08:56:41;0.73;;;0.15;;
65073;SDS011;52218;51.224;-2.328;2022-09-09T09:00:24;0.85;;;0.28;;
65073;SDS011;52218;51.224;-2.328;2022-09-09T09:08:20;0.00;;;0.00;;
65073;SDS011;52218;51.224;-2.328;2022-09-09T09:12:28;0.30;;;0.10;;
65073;SDS011;52218;51.224;-2.328;2022-09-09T09:16:21;1.00;;;0.28;;
65073;SDS011;52218;51.224;-2.328;2022-09-09T09:20:14;0.65;;;0.20;;
65073;SDS011;52218;51.224;-2.328;2022-09-09T09:23:58;0.88;;;0.32;;
65073;SDS011;52218;51.224;-2.328;2022-09-09T09:31:53;0.30;;;0.10;;
65073;SDS011;52218;51.224;-2.328;2022-09-09T09:35:37;0.70;;;0.20;;
65073;SDS011;52218;51.224;-2.328;2022-09-09T09:39:28;3.35;;;0.13;;
65073;SDS011;52218;51.224;-2.328;2022-09-09T09:47:19;0.60;;;0.17;;
65073;SDS011;52218;51.224;-2.328;2022-09-09T09:51:09;1.05;;;0.20;;
65073;SDS011;52218;51.224;-2.328;2022-09-09T09:54:57;0.38;;;0.10;;
65073;SDS011;52218;51.224;-2.328;2022-09-09T09:58:51;3.60;;;0.60;;
65073;SDS011;52218;51.224;-2.328;2022-09-09T10:02:38;0.47;;;0.17;;
65073;SDS011;52218;51.224;-2.328;2022-09-09T10:06:32;0.55;;;0.20;;
65073;SDS011;52218;51.224;-2.328;2022-09-09T10:10:19;1.00;;;0.28;;
65073;SDS011;52218;51.224;-2.328;2022-09-09T10:22:28;0.35;;;0.17;;
65073;SDS011;52218;51.224;-2.328;2022-09-09T10:26:25;0.50;;;0.20;;
65073;SDS011;52218;51.224;-2.328;2022-09-09T10:30:23;0.30;;;0.20;;
65073;SDS011;52218;51.224;-2.328;2022-09-09T10:42:22;0.82;;;0.20;;
65073;SDS011;52218;51.224;-2.328;2022-09-09T10:58:40;0.80;;;0.20;;
65073;SDS011;52218;51.224;-2.328;2022-09-09T11:02:33;0.22;;;0.10;;
65073;SDS011;52218;51.224;-2.328;2022-09-09T11:06:17;1.17;;;0.25;;
65073;SDS011;52218;51.224;-2.328;2022-09-09T11:10:02;0.63;;;0.20;;
65073;SDS011;52218;51.224;-2.328;2022-09-09T11:17:42;0.65;;;0.20;;
65073;SDS011;52218;51.224;-2.328;2022-09-09T11:29:02;1.25;;;0.30;;
65073;SDS011;52218;51.224;-2.328;2022-09-09T11:41:22;0.30;;;0.10;;
65073;SDS011;52218;51.224;-2.328;2022-09-09T11:45:37;0.50;;;0.20;;
65073;SDS011;52218;51.224;-2.328;2022-09-09T11:49:25;0.40;;;0.20;;
65073;SDS011;52218;51.224;-2.328;2022-09-09T11:53:21;0.88;;;0.30;;
65073;SDS011;52218;51.224;-2.328;2022-09-09T11:57:04;2.20;;;0.60;;
65073;SDS011;52218;51.224;-2.328;2022-09-09T12:00:56;2.38;;;0.40;;
65073;SDS011;52218;51.224;-2.328;2022-09-09T12:05:01;0.93;;;0.30;;
65073;SDS011;52218;51.224;-2.328;2022-09-09T12:08:57;1.40;;;0.50;;
65073;SDS011;52218;51.224;-2.328;2022-09-09T12:13:18;1.23;;;0.40;;
65073;SDS011;52218;51.224;-2.328;2022-09-09T12:17:15;1.27;;;0.40;;
65073;SDS011;52218;51.224;-2.328;2022-09-09T12:21:06;1.52;;;0.50;;
65073;SDS011;52218;51.224;-2.328;2022-09-09T12:24:55;1.58;;;0.43;;
65073;SDS011;52218;51.224;-2.328;2022-09-09T12:33:11;2.25;;;0.60;;
65073;SDS011;52218;51.224;-2.328;2022-09-09T12:37:02;2.75;;;0.30;;
65073;SDS011;52218;51.224;-2.328;2022-09-09T12:40:56;2.10;;;0.35;;
65073;SDS011;52218;51.224;-2.328;2022-09-09T12:44:39;1.35;;;0.30;;
65073;SDS011;52218;51.224;-2.328;2022-09-09T12:48:42;3.03;;;0.47;;
65073;SDS011;52218;51.224;-2.328;2022-09-09T12:52:32;2.22;;;0.50;;
65073;SDS011;52218;51.224;-2.328;2022-09-09T12:56:19;2.35;;;0.40;;
65073;SDS011;52218;51.224;-2.328;2022-09-09T13:00:04;2.53;;;0.40;;
65073;SDS011;52218;51.224;-2.328;2022-09-09T13:03:57;3.17;;;0.50;;
65073;SDS011;52218;51.224;-2.328;2022-09-09T13:07:39;2.25;;;0.70;;
65073;SDS011;52218;51.224;-2.328;2022-09-09T13:11:22;3.17;;;0.70;;
65073;SDS011;52218;51.224;-2.328;2022-09-09T13:15:12;2.58;;;0.70;;
65073;SDS011;52218;51.224;-2.328;2022-09-09T13:19:08;3.85;;;0.60;;
65073;SDS011;52218;51.224;-2.328;2022-09-09T13:22:55;5.70;;;0.60;;
65073;SDS011;52218;51.224;-2.328;2022-09-09T13:26:37;2.75;;;0.40;;
65073;SDS011;52218;51.224;-2.328;2022-09-09T13:34:13;3.67;;;0.50;;
65073;SDS011;52218;51.224;-2.328;2022-09-09T13:38:08;1.67;;;0.60;;
65073;SDS011;52218;51.224;-2.328;2022-09-09T13:41:50;1.77;;;0.70;;
65073;SDS011;52218;51.224;-2.328;2022-09-09T13:45:34;1.17;;;0.40;;
65073;SDS011;52218;51.224;-2.328;2022-09-09T13:49:21;1.67;;;0.50;;
65073;SDS011;52218;51.224;-2.328;2022-09-09T13:53:04;3.78;;;0.88;;
65073;SDS011;52218;51.224;-2.328;2022-09-09T13:56:46;2.90;;;0.60;;
65073;SDS011;52218;51.224;-2.328;2022-09-09T14:00:32;0.95;;;0.45;;
65073;SDS011;52218;51.224;-2.328;2022-09-09T14:04:15;2.17;;;0.50;;
65073;SDS011;52218;51.224;-2.328;2022-09-09T14:07:58;1.88;;;0.43;;
65073;SDS011;52218;51.224;-2.328;2022-09-09T14:11:42;2.28;;;0.50;;
65073;SDS011;52218;51.224;-2.328;2022-09-09T14:15:25;2.92;;;0.55;;
65073;SDS011;52218;51.224;-2.328;2022-09-09T14:19:08;1.75;;;0.50;;
65073;SDS011;52218;51.224;-2.328;2022-09-09T14:22:50;2.05;;;0.57;;
65073;SDS011;52218;51.224;-2.328;2022-09-09T14:26:34;2.05;;;0.77;;
65073;SDS011;52218;51.224;-2.328;2022-09-09T14:30:16;2.38;;;0.50;;
65073;SDS011;52218;51.224;-2.328;2022-09-09T14:33:58;1.83;;;0.40;;
65073;SDS011;52218;51.224;-2.328;2022-09-09T14:37:40;3.42;;;0.70;;
65073;SDS011;52218;51.224;-2.328;2022-09-09T14:41:22;2.17;;;0.40;;
65073;SDS011;52218;51.224;-2.328;2022-09-09T14:45:04;1.88;;;0.40;;
65073;SDS011;52218;51.224;-2.328;2022-09-09T14:48:47;1.80;;;0.40;;
65073;SDS011;52218;51.224;-2.328;2022-09-09T14:52:32;2.15;;;0.30;;
65073;SDS011;52218;51.224;-2.328;2022-09-09T14:56:15;0.73;;;0.22;;
65073;SDS011;52218;51.224;-2.328;2022-09-09T15:00:05;1.90;;;0.50;;
65073;SDS011;52218;51.224;-2.328;2022-09-09T15:03:58;0.43;;;0.20;;
65073;SDS011;52218;51.224;-2.328;2022-09-09T15:07:41;1.90;;;0.30;;
65073;SDS011;52218;51.224;-2.328;2022-09-09T15:11:23;1.65;;;0.40;;
65073;SDS011;52218;51.224;-2.328;2022-09-09T15:15:09;2.63;;;0.50;;
65073;SDS011;52218;51.224;-2.328;2022-09-09T15:18:52;1.23;;;0.40;;
65073;SDS011;52218;51.224;-2.328;2022-09-09T15:22:35;3.95;;;0.57;;
65073;SDS011;52218;51.224;-2.328;2022-09-09T15:26:18;1.42;;;0.32;;
65073;SDS011;52218;51.224;-2.328;2022-09-09T15:30:02;2.63;;;0.50;;
65073;SDS011;52218;51.224;-2.328;2022-09-09T15:33:54;1.65;;;0.40;;
65073;SDS011;52218;51.224;-2.328;2022-09-09T15:37:43;1.90;;;0.40;;
65073;SDS011;52218;51.224;-2.328;2022-09-09T15:41:26;1.45;;;0.32;;
65073;SDS011;52218;51.224;-2.328;2022-09-09T15:45:09;2.75;;;0.60;;
65073;SDS011;52218;51.224;-2.328;2022-09-09T15:48:51;3.28;;;0.43;;
65073;SDS011;52218;51.224;-2.328;2022-09-09T15:52:34;1.25;;;0.40;;
65073;SDS011;52218;51.224;-2.328;2022-09-09T15:56:16;2.25;;;0.50;;
65073;SDS011;52218;51.224;-2.328;2022-09-09T15:59:58;2.65;;;0.43;;
65073;SDS011;52218;51.224;-2.328;2022-09-09T16:03:41;2.17;;;0.50;;
65073;SDS011;52218;51.224;-2.328;2022-09-09T16:07:25;1.92;;;0.40;;
65073;SDS011;52218;51.224;-2.328;2022-09-09T16:11:17;2.55;;;0.50;;
65073;SDS011;52218;51.224;-2.328;2022-09-09T16:15:07;2.63;;;0.63;;
65073;SDS011;52218;51.224;-2.328;2022-09-09T16:18:50;2.10;;;0.50;;
65073;SDS011;52218;51.224;-2.328;2022-09-09T16:22:34;6.38;;;0.77;;
65073;SDS011;52218;51.224;-2.328;2022-09-09T16:26:17;2.78;;;0.60;;
65073;SDS011;52218;51.224;-2.328;2022-09-09T16:29:59;3.30;;;0.82;;
65073;SDS011;52218;51.224;-2.328;2022-09-09T16:33:41;1.42;;;0.50;;
65073;SDS011;52218;51.224;-2.328;2022-09-09T16:37:24;2.63;;;0.60;;
65073;SDS011;52218;51.224;-2.328;2022-09-09T16:41:06;2.95;;;0.80;;
65073;SDS011;52218;51.224;-2.328;2022-09-09T16:44:50;2.58;;;0.60;;
65073;SDS011;52218;51.224;-2.328;2022-09-09T16:48:32;1.95;;;0.57;;
65073;SDS011;52218;51.224;-2.328;2022-09-09T16:52:14;3.65;;;0.80;;
65073;SDS011;52218;51.224;-2.328;2022-09-09T16:56:07;2.47;;;0.60;;
65073;SDS011;52218;51.224;-2.328;2022-09-09T16:59:50;5.15;;;0.80;;
65073;SDS011;52218;51.224;-2.328;2022-09-09T17:03:35;2.50;;;0.70;;
65073;SDS011;52218;51.224;-2.328;2022-09-09T17:07:18;4.38;;;0.77;;
65073;SDS011;52218;51.224;-2.328;2022-09-09T17:11:00;3.03;;;0.98;;
65073;SDS011;52218;51.224;-2.328;2022-09-09T17:14:42;2.42;;;0.60;;
65073;SDS011;52218;51.224;-2.328;2022-09-09T17:18:25;3.63;;;0.90;;
65073;SDS011;52218;51.224;-2.328;2022-09-09T17:22:09;4.20;;;0.95;;
65073;SDS011;52218;51.224;-2.328;2022-09-09T17:25:58;3.95;;;0.70;;
65073;SDS011;52218;51.224;-2.328;2022-09-09T17:29:41;4.10;;;0.90;;
65073;SDS011;52218;51.224;-2.328;2022-09-09T17:33:24;3.55;;;0.50;;
65073;SDS011;52218;51.224;-2.328;2022-09-09T17:37:07;3.17;;;0.80;;
65073;SDS011;52218;51.224;-2.328;2022-09-09T17:40:49;3.55;;;0.82;;
65073;SDS011;52218;51.224;-2.328;2022-09-09T17:44:31;3.22;;;0.70;;
65073;SDS011;52218;51.224;-2.328;2022-09-09T17:48:13;2.25;;;0.50;;
65073;SDS011;52218;51.224;-2.328;2022-09-09T17:51:55;3.63;;;0.70;;
65073;SDS011;52218;51.224;-2.328;2022-09-09T17:55:37;2.53;;;0.63;;
65073;SDS011;52218;51.224;-2.328;2022-09-09T17:59:19;2.97;;;0.60;;
65073;SDS011;52218;51.224;-2.328;2022-09-09T18:03:01;2.65;;;0.50;;
65073;SDS011;52218;51.224;-2.328;2022-09-09T18:06:45;2.30;;;0.65;;
65073;SDS011;52218;51.224;-2.328;2022-09-09T18:10:28;4.03;;;0.70;;
65073;SDS011;52218;51.224;-2.328;2022-09-09T18:14:13;5.45;;;1.05;;
65073;SDS011;52218;51.224;-2.328;2022-09-09T18:18:00;3.45;;;0.90;;
65073;SDS011;52218;51.224;-2.328;2022-09-09T18:21:43;3.05;;;0.55;;
65073;SDS011;52218;51.224;-2.328;2022-09-09T18:25:25;2.10;;;0.40;;
65073;SDS011;52218;51.224;-2.328;2022-09-09T18:29:08;2.38;;;0.63;;
65073;SDS011;52218;51.224;-2.328;2022-09-09T18:32:53;3.83;;;0.70;;
65073;SDS011;52218;51.224;-2.328;2022-09-09T18:36:36;2.25;;;0.50;;
65073;SDS011;52218;51.224;-2.328;2022-09-09T18:40:29;2.75;;;0.60;;
65073;SDS011;52218;51.224;-2.328;2022-09-09T18:44:13;2.70;;;0.60;;
65073;SDS011;52218;51.224;-2.328;2022-09-09T18:47:56;2.55;;;0.60;;
65073;SDS011;52218;51.224;-2.328;2022-09-09T18:51:38;1.92;;;0.63;;
65073;SDS011;52218;51.224;-2.328;2022-09-09T18:55:22;4.43;;;1.05;;
65073;SDS011;52218;51.224;-2.328;2022-09-09T18:59:05;2.95;;;0.70;;
65073;SDS011;52218;51.224;-2.328;2022-09-09T19:02:49;2.67;;;0.82;;
65073;SDS011;52218;51.224;-2.328;2022-09-09T19:06:35;3.67;;;0.70;;
65073;SDS011;52218;51.224;-2.328;2022-09-09T19:14:02;5.10;;;0.77;;
65073;SDS011;52218;51.224;-2.328;2022-09-09T19:17:45;2.65;;;0.90;;
65073;SDS011;52218;51.224;-2.328;2022-09-09T19:21:31;2.10;;;0.80;;
65073;SDS011;52218;51.224;-2.328;2022-09-09T19:25:15;2.25;;;0.70;;
65073;SDS011;52218;51.224;-2.328;2022-09-09T19:28:58;1.70;;;0.60;;
65073;SDS011;52218;51.224;-2.328;2022-09-09T19:32:41;1.38;;;0.60;;
65073;SDS011;52218;51.224;-2.328;2022-09-09T19:36:34;2.00;;;0.70;;
65073;SDS011;52218;51.224;-2.328;2022-09-09T19:40:16;2.28;;;0.80;;
65073;SDS011;52218;51.224;-2.328;2022-09-09T19:43:59;1.50;;;0.73;;
65073;SDS011;52218;51.224;-2.328;2022-09-09T19:47:42;1.75;;;0.60;;
65073;SDS011;52218;51.224;-2.328;2022-09-09T19:51:24;3.72;;;0.60;;
65073;SDS011;52218;51.224;-2.328;2022-09-09T19:55:07;2.60;;;0.70;;
65073;SDS011;52218;51.224;-2.328;2022-09-09T19:58:49;2.35;;;0.80;;
65073;SDS011;52218;51.224;-2.328;2022-09-09T20:02:32;1.90;;;0.60;;
65073;SDS011;52218;51.224;-2.328;2022-09-09T20:06:14;2.03;;;0.63;;
65073;SDS011;52218;51.224;-2.328;2022-09-09T20:09:58;1.98;;;0.60;;
65073;SDS011;52218;51.224;-2.328;2022-09-09T20:13:40;3.00;;;0.90;;
65073;SDS011;52218;51.224;-2.328;2022-09-09T20:17:22;2.65;;;0.90;;
65073;SDS011;52218;51.224;-2.328;2022-09-09T20:21:09;1.75;;;0.60;;
65073;SDS011;52218;51.224;-2.328;2022-09-09T20:24:53;2.25;;;0.70;;
65073;SDS011;52218;51.224;-2.328;2022-09-09T20:28:36;2.03;;;0.80;;
65073;SDS011;52218;51.224;-2.328;2022-09-09T20:32:19;1.13;;;0.63;;
65073;SDS011;52218;51.224;-2.328;2022-09-09T20:36:18;1.95;;;0.60;;
65073;SDS011;52218;51.224;-2.328;2022-09-09T20:40:02;1.50;;;0.50;;
65073;SDS011;52218;51.224;-2.328;2022-09-09T20:43:44;2.38;;;0.80;;
65073;SDS011;52218;51.224;-2.328;2022-09-09T20:47:29;2.10;;;0.80;;
65073;SDS011;52218;51.224;-2.328;2022-09-09T20:51:13;3.45;;;1.00;;
65073;SDS011;52218;51.224;-2.328;2022-09-09T20:54:57;1.95;;;1.33;;
65073;SDS011;52218;51.224;-2.328;2022-09-09T20:58:39;3.17;;;1.20;;
65073;SDS011;52218;51.224;-2.328;2022-09-09T21:02:21;1.83;;;0.80;;
65073;SDS011;52218;51.224;-2.328;2022-09-09T21:06:03;1.30;;;0.57;;
65073;SDS011;52218;51.224;-2.328;2022-09-09T21:09:46;3.90;;;0.77;;
65073;SDS011;52218;51.224;-2.328;2022-09-09T21:13:29;1.85;;;0.60;;
65073;SDS011;52218;51.224;-2.328;2022-09-09T21:17:12;1.27;;;0.80;;
65073;SDS011;52218;51.224;-2.328;2022-09-09T21:20:54;2.92;;;0.85;;
65073;SDS011;52218;51.224;-2.328;2022-09-09T21:24:37;2.47;;;1.05;;
65073;SDS011;52218;51.224;-2.328;2022-09-09T21:28:18;2.90;;;0.93;;
65073;SDS011;52218;51.224;-2.328;2022-09-09T21:32:02;2.17;;;1.02;;
65073;SDS011;52218;51.224;-2.328;2022-09-09T21:35:44;4.05;;;1.20;;
65073;SDS011;52218;51.224;-2.328;2022-09-09T21:39:26;4.20;;;1.10;;
65073;SDS011;52218;51.224;-2.328;2022-09-09T21:43:08;2.70;;;1.10;;
65073;SDS011;52218;51.224;-2.328;2022-09-09T21:46:51;3.00;;;1.10;;
65073;SDS011;52218;51.224;-2.328;2022-09-09T21:50:36;3.42;;;1.25;;
65073;SDS011;52218;51.224;-2.328;2022-09-09T21:54:19;2.83;;;1.17;;
65073;SDS011;52218;51.224;-2.328;2022-09-09T21:58:01;3.03;;;1.27;;
65073;SDS011;52218;51.224;-2.328;2022-09-09T22:01:44;3.88;;;1.60;;
65073;SDS011;52218;51.224;-2.328;2022-09-09T22:05:27;2.05;;;1.20;;
65073;SDS011;52218;51.224;-2.328;2022-09-09T22:09:11;2.65;;;1.58;;
65073;SDS011;52218;51.224;-2.328;2022-09-09T22:12:53;2.67;;;1.33;;
65073;SDS011;52218;51.224;-2.328;2022-09-09T22:16:35;3.72;;;1.23;;
65073;SDS011;52218;51.224;-2.328;2022-09-09T22:20:16;3.25;;;1.13;;
65073;SDS011;52218;51.224;-2.328;2022-09-09T22:23:59;1.95;;;1.10;;
65073;SDS011;52218;51.224;-2.328;2022-09-09T22:27:43;2.17;;;1.27;;
65073;SDS011;52218;51.224;-2.328;2022-09-09T22:31:25;2.80;;;1.40;;
65073;SDS011;52218;51.224;-2.328;2022-09-09T22:35:08;2.65;;;1.40;;
65073;SDS011;52218;51.224;-2.328;2022-09-09T22:38:50;2.58;;;1.20;;
65073;SDS011;52218;51.224;-2.328;2022-09-09T22:42:32;3.63;;;1.40;;
65073;SDS011;52218;51.224;-2.328;2022-09-09T22:46:15;4.57;;;1.70;;
65073;SDS011;52218;51.224;-2.328;2022-09-09T22:49:57;3.65;;;1.50;;
65073;SDS011;52218;51.224;-2.328;2022-09-09T22:53:39;2.88;;;1.55;;
65073;SDS011;52218;51.224;-2.328;2022-09-09T22:57:22;2.28;;;1.35;;
65073;SDS011;52218;51.224;-2.328;2022-09-09T23:01:08;4.10;;;2.10;;
65073;SDS011;52218;51.224;-2.328;2022-09-09T23:04:56;2.95;;;1.45;;
65073;SDS011;52218;51.224;-2.328;2022-09-09T23:08:39;5.55;;;1.70;;
65073;SDS011;52218;51.224;-2.328;2022-09-09T23:12:21;4.43;;;1.60;;
65073;SDS011;52218;51.224;-2.328;2022-09-09T23:16:16;3.38;;;1.90;;
65073;SDS011;52218;51.224;-2.328;2022-09-09T23:20:00;2.85;;;1.67;;
65073;SDS011;52218;51.224;-2.328;2022-09-09T23:23:43;2.42;;;1.77;;
65073;SDS011;52218;51.224;-2.328;2022-09-09T23:27:25;2.80;;;1.77;;
65073;SDS011;52218;51.224;-2.328;2022-09-09T23:31:08;5.32;;;2.28;;
65073;SDS011;52218;51.224;-2.328;2022-09-09T23:34:51;4.93;;;2.15;;
65073;SDS011;52218;51.224;-2.328;2022-09-09T23:38:33;4.40;;;2.45;;
65073;SDS011;52218;51.224;-2.328;2022-09-09T23:42:18;3.30;;;2.50;;
65073;SDS011;52218;51.224;-2.328;2022-09-09T23:46:00;3.90;;;2.30;;
65073;SDS011;52218;51.224;-2.328;2022-09-09T23:49:43;4.00;;;2.40;;
65073;SDS011;52218;51.224;-2.328;2022-09-09T23:53:25;3.05;;;2.30;;
65073;SDS011;52218;51.224;-2.328;2022-09-09T23:57:06;4.78;;;2.45;;
